BVX839 CYYC-CYYZ
Flight info
| Callsign | BVX839 |
|---|---|
| Flight time | N/A |
| Altitude | 35000 |
| Route | LOMLO Q961 DAPOP DCT KOBID DCT 49N090W/N0464F370 DCT TUDAN BOXUM7 |
| Aircraft | B738/M-SDE2E3FGHIRWXY/LB1 |
Departure
| Time | 2026-04-29 02:50 |
|---|---|
| Airport | Calgary International Airport (CYYC) |
Arrival
| Time | N/A |
|---|---|
| Airport | Toronto Pearson International Airport (CYYZ) |
| Time | Latitude | Longitude | Altitude | Speed | Heading |
|---|---|---|---|---|---|
| 2026-04-29 02:15 | 51.13313 | -114.01576 | 3558 ft | 0 kts | 130° |
| 2026-04-29 02:36 | 51.13325 | -114.01597 | 3558 ft | 4 kts | 134° |
| 2026-04-29 02:36 | 51.13344 | -114.01627 | 3554 ft | 4 kts | 141° |
| 2026-04-29 02:36 | 51.13366 | -114.01651 | 3556 ft | 4 kts | 158° |
| 2026-04-29 02:37 | 51.13389 | -114.01658 | 3557 ft | 4 kts | 211° |
| 2026-04-29 02:37 | 51.13395 | -114.01651 | 3557 ft | 0 kts | 244° |
| 2026-04-29 02:39 | 51.13389 | -114.01669 | 3557 ft | 6 kts | 243° |
| 2026-04-29 02:40 | 51.13357 | -114.01774 | 3556 ft | 12 kts | 244° |
| 2026-04-29 02:40 | 51.13304 | -114.01853 | 3558 ft | 11 kts | 188° |
| 2026-04-29 02:40 | 51.13248 | -114.01854 | 3558 ft | 15 kts | 180° |
| 2026-04-29 02:40 | 51.13113 | -114.01839 | 3558 ft | 14 kts | 155° |
| 2026-04-29 02:41 | 51.13020 | -114.01796 | 3558 ft | 17 kts | 179° |
| 2026-04-29 02:41 | 51.12928 | -114.01795 | 3558 ft | 22 kts | 180° |
| 2026-04-29 02:41 | 51.12749 | -114.01796 | 3558 ft | 29 kts | 179° |
| 2026-04-29 02:41 | 51.12556 | -114.01795 | 3556 ft | 27 kts | 179° |
| 2026-04-29 02:42 | 51.12371 | -114.01796 | 3558 ft | 27 kts | 180° |
| 2026-04-29 02:42 | 51.12178 | -114.01796 | 3554 ft | 29 kts | 180° |
| 2026-04-29 02:42 | 51.11976 | -114.01797 | 3559 ft | 28 kts | 180° |
| 2026-04-29 02:42 | 51.11774 | -114.01797 | 3558 ft | 30 kts | 180° |
| 2026-04-29 02:43 | 51.11559 | -114.01797 | 3557 ft | 31 kts | 180° |
| 2026-04-29 02:43 | 51.11341 | -114.01797 | 3558 ft | 31 kts | 180° |
| 2026-04-29 02:43 | 51.11121 | -114.01798 | 3558 ft | 31 kts | 180° |
| 2026-04-29 02:43 | 51.10902 | -114.01798 | 3556 ft | 31 kts | 180° |
| 2026-04-29 02:44 | 51.10683 | -114.01798 | 3558 ft | 32 kts | 180° |
| 2026-04-29 02:44 | 51.10467 | -114.01799 | 3557 ft | 31 kts | 180° |
| 2026-04-29 02:44 | 51.10262 | -114.01798 | 3558 ft | 29 kts | 180° |
| 2026-04-29 02:44 | 51.10068 | -114.01799 | 3556 ft | 27 kts | 180° |
| 2026-04-29 02:45 | 51.09885 | -114.01799 | 3558 ft | 25 kts | 179° |
| 2026-04-29 02:45 | 51.09747 | -114.01799 | 3558 ft | 12 kts | 180° |
| 2026-04-29 02:45 | 51.09692 | -114.01875 | 3558 ft | 11 kts | 259° |
| 2026-04-29 02:45 | 51.09691 | -114.01944 | 3558 ft | 0 kts | 269° |
| 2026-04-29 02:48 | 51.09691 | -114.01947 | 3559 ft | 2 kts | 269° |
| 2026-04-29 02:48 | 51.09691 | -114.02016 | 3559 ft | 10 kts | 270° |
| 2026-04-29 02:48 | 51.09699 | -114.02121 | 3560 ft | 9 kts | 302° |
| 2026-04-29 02:49 | 51.09739 | -114.02139 | 3557 ft | 0 kts | 1° |
| 2026-04-29 02:49 | 51.09858 | -114.02138 | 3560 ft | 47 kts | 0° |
| 2026-04-29 02:49 | 51.10418 | -114.02140 | 3553 ft | 112 kts | 360° |
| 2026-04-29 02:50 | 51.11384 | -114.02127 | 3559 ft | 165 kts | 2° |
| 2026-04-29 02:50 | 51.12587 | -114.02170 | 4109 ft | 169 kts | 2° |
| 2026-04-29 02:50 | 51.13761 | -114.02191 | 4799 ft | 171 kts | 5° |
| 2026-04-29 02:50 | 51.14972 | -114.02136 | 5450 ft | 177 kts | 3° |
| 2026-04-29 02:51 | 51.16299 | -114.02133 | 5728 ft | 202 kts | 359° |
| 2026-04-29 02:51 | 51.17768 | -114.02217 | 5911 ft | 225 kts | 358° |
| 2026-04-29 02:51 | 51.19399 | -114.02370 | 6241 ft | 241 kts | 355° |
| 2026-04-29 02:51 | 51.21145 | -114.02612 | 6501 ft | 264 kts | 352° |
| 2026-04-29 02:52 | 51.23012 | -114.02957 | 7140 ft | 271 kts | 351° |
| 2026-04-29 02:52 | 51.24870 | -114.03248 | 8034 ft | 270 kts | 356° |
| 2026-04-29 02:52 | 51.26703 | -114.02626 | 8918 ft | 276 kts | 27° |
| 2026-04-29 02:52 | 51.28087 | -114.00463 | 9734 ft | 287 kts | 58° |
| 2026-04-29 02:53 | 51.28602 | -113.97371 | 10399 ft | 303 kts | 86° |
| 2026-04-29 02:53 | 51.28475 | -113.93866 | 10629 ft | 328 kts | 92° |
| 2026-04-29 02:53 | 51.28248 | -113.90103 | 10815 ft | 351 kts | 93° |
| 2026-04-29 02:53 | 51.27997 | -113.86104 | 11038 ft | 371 kts | 94° |
| 2026-04-29 02:54 | 51.27673 | -113.81943 | 11581 ft | 380 kts | 95° |
| 2026-04-29 02:54 | 51.27299 | -113.77793 | 12296 ft | 383 kts | 95° |
| 2026-04-29 02:54 | 51.26905 | -113.73583 | 13033 ft | 385 kts | 95° |
| 2026-04-29 02:54 | 51.26505 | -113.69326 | 13725 ft | 388 kts | 95° |
| 2026-04-29 02:55 | 51.26105 | -113.65029 | 14350 ft | 392 kts | 95° |
| 2026-04-29 02:55 | 51.25707 | -113.60716 | 14955 ft | 395 kts | 95° |
| 2026-04-29 02:55 | 51.25312 | -113.56407 | 15549 ft | 398 kts | 95° |
| 2026-04-29 02:55 | 51.24911 | -113.52017 | 16141 ft | 401 kts | 95° |
| 2026-04-29 02:56 | 51.24507 | -113.47598 | 16723 ft | 405 kts | 95° |
| 2026-04-29 02:56 | 51.24096 | -113.43104 | 17236 ft | 410 kts | 96° |
| 2026-04-29 02:56 | 51.23682 | -113.38591 | 17890 ft | 411 kts | 96° |
| 2026-04-29 02:56 | 51.23270 | -113.34127 | 18519 ft | 412 kts | 96° |
| 2026-04-29 02:57 | 51.22849 | -113.29579 | 19026 ft | 416 kts | 96° |
| 2026-04-29 02:57 | 51.22422 | -113.24984 | 19515 ft | 420 kts | 96° |
| 2026-04-29 02:57 | 51.21990 | -113.20349 | 19998 ft | 423 kts | 96° |
| 2026-04-29 02:57 | 51.21552 | -113.15679 | 20497 ft | 426 kts | 96° |
| 2026-04-29 02:58 | 51.21115 | -113.11038 | 20973 ft | 430 kts | 96° |
| 2026-04-29 02:58 | 51.20667 | -113.06298 | 21446 ft | 433 kts | 96° |
| 2026-04-29 02:58 | 51.20214 | -113.01524 | 21913 ft | 437 kts | 96° |
| 2026-04-29 02:58 | 51.19755 | -112.96723 | 22370 ft | 440 kts | 96° |
| 2026-04-29 02:59 | 51.19290 | -112.91876 | 22827 ft | 443 kts | 96° |
| 2026-04-29 02:59 | 51.18826 | -112.87055 | 23271 ft | 447 kts | 96° |
| 2026-04-29 02:59 | 51.18350 | -112.82142 | 23693 ft | 450 kts | 96° |
| 2026-04-29 02:59 | 51.17869 | -112.77186 | 24060 ft | 453 kts | 96° |
| 2026-04-29 03:00 | 51.17383 | -112.72217 | 24432 ft | 455 kts | 96° |
| 2026-04-29 03:00 | 51.16897 | -112.67263 | 24783 ft | 457 kts | 96° |
| 2026-04-29 03:00 | 51.16402 | -112.62241 | 25131 ft | 460 kts | 96° |
| 2026-04-29 03:00 | 51.15902 | -112.57189 | 25462 ft | 462 kts | 96° |
| 2026-04-29 03:01 | 51.15397 | -112.52115 | 25809 ft | 465 kts | 96° |
| 2026-04-29 03:01 | 51.14888 | -112.47016 | 26145 ft | 467 kts | 96° |
| 2026-04-29 03:01 | 51.14374 | -112.41901 | 26469 ft | 469 kts | 96° |
| 2026-04-29 03:01 | 51.13855 | -112.36747 | 26796 ft | 472 kts | 96° |
| 2026-04-29 03:02 | 51.13332 | -112.31584 | 27167 ft | 472 kts | 97° |
| 2026-04-29 03:02 | 51.12805 | -112.26408 | 27496 ft | 474 kts | 97° |
| 2026-04-29 03:02 | 51.12274 | -112.21217 | 27766 ft | 477 kts | 97° |
| 2026-04-29 03:02 | 51.11737 | -112.15982 | 28025 ft | 480 kts | 97° |
| 2026-04-29 03:03 | 51.11200 | -112.10776 | 28288 ft | 482 kts | 97° |
| 2026-04-29 03:03 | 51.10654 | -112.05510 | 28590 ft | 484 kts | 97° |
| 2026-04-29 03:03 | 51.10104 | -112.00229 | 28993 ft | 483 kts | 97° |
| 2026-04-29 03:03 | 51.09553 | -111.94965 | 29452 ft | 481 kts | 97° |
| 2026-04-29 03:04 | 51.09008 | -111.89784 | 29884 ft | 480 kts | 97° |
| 2026-04-29 03:04 | 51.08455 | -111.84545 | 30220 ft | 480 kts | 97° |
| 2026-04-29 03:04 | 51.07899 | -111.79300 | 30546 ft | 479 kts | 97° |
| 2026-04-29 03:04 | 51.07343 | -111.74087 | 30992 ft | 476 kts | 97° |
| 2026-04-29 03:05 | 51.06796 | -111.68970 | 31327 ft | 475 kts | 97° |
| 2026-04-29 03:05 | 51.06240 | -111.63790 | 31554 ft | 476 kts | 97° |
| 2026-04-29 03:05 | 51.05680 | -111.58591 | 31802 ft | 477 kts | 97° |
| 2026-04-29 03:05 | 51.05117 | -111.53384 | 32104 ft | 477 kts | 97° |
| 2026-04-29 03:06 | 51.04551 | -111.48190 | 32433 ft | 476 kts | 97° |
| 2026-04-29 03:06 | 51.03984 | -111.42997 | 32734 ft | 476 kts | 97° |
| 2026-04-29 03:06 | 51.03415 | -111.37811 | 32992 ft | 476 kts | 97° |
| 2026-04-29 03:06 | 51.02844 | -111.32629 | 33255 ft | 477 kts | 97° |
| 2026-04-29 03:07 | 51.02269 | -111.27433 | 33493 ft | 477 kts | 97° |
| 2026-04-29 03:07 | 51.01699 | -111.22303 | 33831 ft | 476 kts | 97° |
| 2026-04-29 03:07 | 51.01120 | -111.17126 | 34186 ft | 474 kts | 97° |
| 2026-04-29 03:07 | 51.00542 | -111.11967 | 34405 ft | 474 kts | 97° |
| 2026-04-29 03:08 | 50.99961 | -111.06807 | 34575 ft | 475 kts | 97° |
| 2026-04-29 03:08 | 50.99385 | -111.01702 | 34747 ft | 476 kts | 97° |
| 2026-04-29 03:08 | 50.98796 | -110.96512 | 34953 ft | 476 kts | 97° |
| 2026-04-29 03:08 | 50.98206 | -110.91330 | 35112 ft | 477 kts | 97° |
| 2026-04-29 03:09 | 50.97609 | -110.86113 | 35102 ft | 480 kts | 97° |
| 2026-04-29 03:09 | 50.96417 | -110.75762 | 35113 ft | 478 kts | 97° |
| 2026-04-29 03:10 | 50.95218 | -110.65438 | 35118 ft | 474 kts | 98° |
| 2026-04-29 03:10 | 50.94017 | -110.55174 | 35120 ft | 472 kts | 98° |
| 2026-04-29 03:11 | 50.92820 | -110.45021 | 35119 ft | 471 kts | 98° |
| 2026-04-29 03:11 | 50.91606 | -110.34803 | 35125 ft | 471 kts | 98° |
| 2026-04-29 03:12 | 50.90389 | -110.24641 | 35119 ft | 472 kts | 98° |
| 2026-04-29 03:12 | 50.89152 | -110.14388 | 35152 ft | 474 kts | 98° |
| 2026-04-29 03:13 | 50.87903 | -110.04107 | 35134 ft | 476 kts | 98° |
| 2026-04-29 03:13 | 50.87309 | -109.93786 | 35138 ft | 472 kts | 86° |
| 2026-04-29 03:14 | 50.87436 | -109.83365 | 35127 ft | 473 kts | 86° |
| 2026-04-29 03:14 | 50.87566 | -109.72992 | 35130 ft | 474 kts | 86° |
| 2026-04-29 03:15 | 50.87651 | -109.62537 | 35149 ft | 474 kts | 87° |
| 2026-04-29 03:15 | 50.87703 | -109.52099 | 35182 ft | 476 kts | 87° |
| 2026-04-29 03:15 | 50.87724 | -109.46850 | 35378 ft | 475 kts | 87° |
| 2026-04-29 03:16 | 50.87741 | -109.41678 | 35639 ft | 474 kts | 87° |
| 2026-04-29 03:16 | 50.87756 | -109.36484 | 35903 ft | 472 kts | 87° |
| 2026-04-29 03:16 | 50.87769 | -109.31286 | 36147 ft | 471 kts | 87° |
| 2026-04-29 03:16 | 50.87780 | -109.26083 | 36321 ft | 471 kts | 87° |
| 2026-04-29 03:17 | 50.87790 | -109.20881 | 36466 ft | 472 kts | 87° |
| 2026-04-29 03:17 | 50.87797 | -109.15739 | 36649 ft | 472 kts | 87° |
| 2026-04-29 03:17 | 50.87802 | -109.10530 | 36875 ft | 472 kts | 88° |
| 2026-04-29 03:17 | 50.87805 | -109.05327 | 37084 ft | 470 kts | 88° |
| 2026-04-29 03:18 | 50.87805 | -109.00157 | 37131 ft | 473 kts | 88° |
| 2026-04-29 03:18 | 50.87800 | -108.89675 | 37139 ft | 474 kts | 88° |
| 2026-04-29 03:19 | 50.87783 | -108.79310 | 37137 ft | 472 kts | 88° |
| 2026-04-29 03:19 | 50.87758 | -108.68997 | 37141 ft | 470 kts | 88° |
| 2026-04-29 03:20 | 50.87724 | -108.58653 | 37138 ft | 468 kts | 88° |
| 2026-04-29 03:20 | 50.87682 | -108.48326 | 37143 ft | 467 kts | 88° |
| 2026-04-29 03:21 | 50.87630 | -108.38077 | 37145 ft | 467 kts | 88° |
| 2026-04-29 03:21 | 50.87570 | -108.27771 | 37152 ft | 468 kts | 88° |
| 2026-04-29 03:22 | 50.87500 | -108.17515 | 37146 ft | 469 kts | 88° |
| 2026-04-29 03:22 | 50.87421 | -108.07151 | 37160 ft | 471 kts | 88° |
| 2026-04-29 03:23 | 50.87333 | -107.96805 | 37157 ft | 472 kts | 88° |
| 2026-04-29 03:23 | 50.87234 | -107.86383 | 37154 ft | 474 kts | 89° |
| 2026-04-29 03:24 | 50.87126 | -107.75945 | 37156 ft | 474 kts | 89° |
| 2026-04-29 03:24 | 50.87010 | -107.65538 | 37163 ft | 475 kts | 89° |
| 2026-04-29 03:25 | 50.86883 | -107.55073 | 37165 ft | 475 kts | 89° |
| 2026-04-29 03:25 | 50.86747 | -107.44659 | 37167 ft | 475 kts | 89° |
| 2026-04-29 03:26 | 50.86601 | -107.34205 | 37172 ft | 474 kts | 89° |